createdAt,value
2019-02-26T00:01:55.051Z,45.50
2019-02-26T00:04:32.753Z,45.60
2019-02-26T00:07:18.226Z,45.50
2019-02-26T00:09:55.703Z,45.40
2019-02-26T00:12:35.470Z,45.70
2019-02-26T00:15:14.853Z,45.80
2019-02-26T00:17:57.220Z,46.00
2019-02-26T00:20:41.416Z,45.90
2019-02-26T00:23:23.604Z,46.00
2019-02-26T00:26:04.236Z,45.80
2019-02-26T00:28:46.460Z,45.70
2019-02-26T00:31:23.840Z,46.00
2019-02-26T00:33:59.574Z,46.00
2019-02-26T00:36:57.266Z,46.00
2019-02-26T00:39:36.193Z,45.70
2019-02-26T00:42:19.503Z,45.90
2019-02-26T01:04:54.539Z,45.60
2019-02-26T01:08:48.283Z,45.70
2019-02-26T01:21:08.710Z,46.00
2019-02-26T01:24:03.777Z,46.00
2019-02-26T01:27:17.705Z,45.80
2019-02-26T01:38:49.153Z,46.20
2019-02-26T01:42:57.376Z,46.40
2019-02-26T01:50:52.120Z,46.50
2019-02-26T01:57:21.573Z,46.40
2019-02-26T02:00:38.671Z,46.40
2019-02-26T02:03:56.138Z,46.40
2019-02-26T02:06:50.968Z,46.60
2019-02-26T02:10:14.155Z,46.60
2019-02-26T02:12:57.701Z,46.60
2019-02-26T02:16:20.015Z,46.50
2019-02-26T02:19:15.513Z,46.40
2019-02-26T02:22:35.086Z,46.40
2019-02-26T02:25:43.344Z,46.60
2019-02-26T02:28:46.898Z,46.70
2019-02-26T02:32:23.379Z,46.70
2019-02-26T02:35:49.777Z,46.90
2019-02-26T02:38:48.611Z,47.00
2019-02-26T02:42:08.941Z,46.70
2019-02-26T02:48:00.615Z,46.70
2019-02-26T02:50:59.715Z,46.80
2019-02-26T02:51:39.441Z,46.60
2019-02-26T02:54:15.538Z,46.70
2019-02-26T02:58:34.905Z,46.70
2019-02-26T03:05:43.276Z,46.90
2019-02-26T03:08:51.085Z,46.80
2019-02-26T03:12:07.891Z,47.10
2019-02-26T03:15:53.433Z,47.20
2019-02-26T03:19:10.122Z,47.40
2019-02-26T03:26:23.527Z,47.40
2019-02-26T03:37:11.847Z,47.50
2019-02-26T03:39:48.857Z,47.60
2019-02-26T03:42:24.117Z,47.70
2019-02-26T03:44:59.668Z,47.80
2019-02-26T03:52:00.760Z,47.90
2019-02-26T03:54:42.968Z,47.90
2019-02-26T03:57:47.561Z,48.00
2019-02-26T04:00:46.906Z,48.10
2019-02-26T04:03:36.710Z,47.90
2019-02-26T04:06:18.889Z,48.00
2019-02-26T04:08:58.945Z,48.10
2019-02-26T04:11:45.651Z,48.10
2019-02-26T04:14:40.806Z,48.30
2019-02-26T04:17:36.789Z,48.30
2019-02-26T04:20:13.211Z,48.00
2019-02-26T04:22:50.016Z,47.90
2019-02-26T04:25:36.584Z,48.10
2019-02-26T04:28:36.287Z,48.10
2019-02-26T04:31:57.561Z,48.20
2019-02-26T04:35:27.171Z,48.10
2019-02-26T04:38:52.629Z,48.20
2019-02-26T04:42:05.381Z,48.20
2019-02-26T04:45:34.061Z,48.30
2019-02-26T04:48:26.933Z,48.30
2019-02-26T04:58:38.098Z,48.30
2019-02-26T05:01:16.388Z,48.10
2019-02-26T05:03:59.844Z,48.20
2019-02-26T05:06:39.043Z,48.20
2019-02-26T05:09:25.325Z,48.30
2019-02-26T05:12:05.921Z,48.30
2019-02-26T05:14:53.255Z,48.30
2019-02-26T05:17:34.190Z,48.30
2019-02-26T05:20:40.106Z,48.30
2019-02-26T05:23:25.916Z,48.30
2019-02-26T05:26:15.259Z,48.20
2019-02-26T05:29:01.521Z,48.30
2019-02-26T05:31:50.327Z,48.30
2019-02-26T05:34:39.884Z,48.30
2019-02-26T05:37:21.986Z,48.30
2019-02-26T05:40:00.571Z,48.30
2019-02-26T05:42:48.285Z,48.80
2019-02-26T05:45:30.048Z,48.20
2019-02-26T05:48:21.305Z,48.40
2019-02-26T05:51:18.934Z,48.50
2019-02-26T05:54:12.265Z,48.50
2019-02-26T05:56:52.837Z,48.60
2019-02-26T05:59:42.898Z,48.70
2019-02-26T06:02:25.251Z,48.60
2019-02-26T06:05:07.039Z,48.70
2019-02-26T06:07:53.382Z,48.60
2019-02-26T06:10:42.447Z,48.90
2019-02-26T06:13:47.287Z,48.90
2019-02-26T06:16:38.562Z,48.90
2019-02-26T06:19:59.379Z,48.80
2019-02-26T06:22:48.874Z,49.00
2019-02-26T06:25:49.906Z,48.80
2019-02-26T06:28:52.988Z,48.90
2019-02-26T06:31:44.590Z,49.00
2019-02-26T06:34:39.402Z,49.10
2019-02-26T06:37:42.779Z,49.20
2019-02-26T06:40:32.395Z,49.30
2019-02-26T06:43:25.863Z,49.30
2019-02-26T06:46:12.305Z,49.30
2019-02-26T06:49:12.412Z,49.30
2019-02-26T06:51:54.791Z,49.30
2019-02-26T06:54:36.616Z,49.30
2019-02-26T06:57:44.017Z,49.30
2019-02-26T07:00:55.428Z,49.50
2019-02-26T07:03:58.792Z,49.50
2019-02-26T07:06:51.050Z,49.50
2019-02-26T07:09:37.279Z,49.50
2019-02-26T07:12:45.516Z,49.50
2019-02-26T07:15:37.682Z,49.70
2019-02-26T07:18:25.136Z,49.80
2019-02-26T07:21:12.753Z,50.00
2019-02-26T07:24:17.562Z,50.00
2019-02-26T07:27:06.573Z,50.10
2019-02-26T07:30:04.532Z,50.10
2019-02-26T07:32:51.262Z,50.20
2019-02-26T07:35:39.679Z,50.10
2019-02-26T07:38:41.591Z,49.90
2019-02-26T07:41:44.651Z,50.10
2019-02-26T07:44:48.216Z,50.20
2019-02-26T07:47:41.035Z,50.20
2019-02-26T07:50:41.567Z,50.30
2019-02-26T07:53:22.728Z,50.30
2019-02-26T07:56:23.867Z,50.60
2019-02-26T07:59:06.735Z,51.00
2019-02-26T08:01:47.112Z,50.90
2019-02-26T08:04:32.314Z,51.00
2019-02-26T08:43:13.070Z,50.50
2019-02-26T09:35:58.262Z,50.10
2019-02-26T10:09:45.984Z,49.50
2019-02-26T10:13:51.161Z,49.40
2019-02-26T10:20:14.296Z,48.90
2019-02-26T10:23:06.326Z,48.30
2019-02-26T12:16:44.914Z,40.40
2019-02-26T18:27:06.650Z,40.00
2019-02-26T18:29:56.805Z,40.00
2019-02-26T18:33:41.883Z,40.10
2019-02-26T20:28:15.321Z,41.40
2019-02-26T20:31:05.716Z,41.00
